Time;durP1;ratioP1;P1;durP2;ratioP2;P2;SDS_P1;SDS_P2;PMS_P1;PMS_P2;Temp;Humidity;BMP_temperature;BMP_pressure;BME280_temperature;BME280_humidity;BME280_pressure;Samples;Min_cycle;Max_cycle;Signal;HPM_P1;HPM_P2
2022/09/26 00:01:21;;;;;;;1999.90;999.90;;;11.30;99.90;;;;;;4993233;28;20035;-82
2022/09/26 00:04:01;;;;;;;1999.90;999.90;;;11.30;99.90;;;;;;4992585;28;20030;-77
2022/09/26 00:06:27;;;;;;;1999.90;999.90;;;11.30;99.90;;;;;;4992767;28;20125;-77
2022/09/26 00:08:54;;;;;;;1999.90;999.90;;;11.30;99.90;;;;;;4991641;28;20118;-77
2022/09/26 00:11:25;;;;;;;1999.90;999.90;;;11.30;99.90;;;;;;4993164;28;20018;-77
2022/09/26 00:13:56;;;;;;;1999.90;999.90;;;11.20;99.90;;;;;;4992752;28;20101;-82
2022/09/26 00:16:23;;;;;;;1999.90;999.90;;;11.20;99.90;;;;;;4992403;28;20390;-77
2022/09/26 00:18:50;;;;;;;1999.90;999.90;;;11.20;99.90;;;;;;4992529;28;20057;-77
2022/09/26 00:21:16;;;;;;;1999.90;999.90;;;11.20;99.90;;;;;;4991704;28;20034;-77
2022/09/26 00:23:43;;;;;;;1999.90;999.90;;;11.20;99.90;;;;;;4992324;28;20054;-77
2022/09/26 00:26:10;;;;;;;1999.90;999.90;;;11.20;99.90;;;;;;4992573;28;20453;-81
2022/09/26 00:28:36;;;;;;;1999.90;999.90;;;11.10;99.90;;;;;;4992553;28;20496;-82
2022/09/26 00:31:08;;;;;;;1999.90;999.90;;;11.20;99.90;;;;;;4992801;28;20027;-77
2022/09/26 00:33:34;;;;;;;1999.90;999.90;;;11.20;99.90;;;;;;4986974;28;20106;-77
2022/09/26 00:36:00;;;;;;;1999.90;999.90;;;11.10;99.90;;;;;;4973192;28;20038;-77
2022/09/26 00:38:25;;;;;;;1999.90;999.90;;;11.10;99.90;;;;;;4975166;28;20031;-82
2022/09/26 00:40:51;;;;;;;1999.90;999.90;;;11.10;99.90;;;;;;4992704;28;20026;-77
2022/09/26 00:43:37;;;;;;;1999.90;999.90;;;11.10;99.90;;;;;;4992614;28;20096;-77
2022/09/26 00:46:25;;;;;;;1999.90;999.90;;;11.10;99.90;;;;;;4992295;28;20031;-77
2022/09/26 00:49:01;;;;;;;1999.90;999.90;;;11.10;99.90;;;;;;4992302;28;20026;-77
2022/09/26 00:51:27;;;;;;;1999.90;999.90;;;11.00;99.90;;;;;;4992494;28;20027;-77
2022/09/26 00:53:54;;;;;;;1999.90;999.90;;;11.00;99.90;;;;;;4991087;28;20401;-82
2022/09/26 00:56:26;;;;;;;1999.90;999.90;;;11.10;99.90;;;;;;4992384;28;20025;-77
2022/09/26 00:59:14;;;;;;;1999.90;999.90;;;11.10;99.90;;;;;;4992496;28;20064;-77
2022/09/26 01:01:40;;;;;;;1999.90;999.90;;;11.10;99.90;;;;;;4995549;28;20089;-77
2022/09/26 01:04:07;;;;;;;1999.90;999.90;;;11.10;99.90;;;;;;4996209;28;20398;-82
2022/09/26 01:06:33;;;;;;;1999.90;999.90;;;11.10;99.90;;;;;;4996079;28;20062;-82
2022/09/26 01:09:06;;;;;;;1999.90;999.90;;;11.10;99.90;;;;;;4995072;28;20031;-77
2022/09/26 01:11:32;;;;;;;;;;;11.10;99.90;;;;;;4996090;28;20022;-77
2022/09/26 01:13:58;;;;;;;1999.90;999.90;;;11.00;99.90;;;;;;4996072;28;19929;-82
2022/09/26 01:16:24;;;;;;;1999.90;999.90;;;11.00;99.90;;;;;;4994989;28;20482;-77
2022/09/26 01:18:50;;;;;;;1999.90;999.90;;;10.90;99.90;;;;;;4995922;28;20030;-82
2022/09/26 01:21:29;;;;;;;1999.90;999.90;;;10.90;99.90;;;;;;4994536;28;20058;-77
2022/09/26 01:24:23;;;;;;;1999.90;999.90;;;10.80;99.90;;;;;;4994936;28;20105;-77
2022/09/26 01:27:22;;;;;;;1999.90;999.90;;;10.80;99.90;;;;;;4995939;28;20400;-77
2022/09/26 01:30:20;;;;;;;1999.90;999.90;;;10.80;99.90;;;;;;4995838;28;20093;-77
2022/09/26 01:33:07;;;;;;;1999.90;999.90;;;10.80;99.90;;;;;;4994230;28;20022;-77
2022/09/26 01:35:42;;;;;;;1999.90;999.90;;;10.80;99.90;;;;;;4976345;28;20457;-77
2022/09/26 01:38:27;;;;;;;1999.90;999.90;;;10.80;99.90;;;;;;4975899;28;20055;-77
2022/09/26 01:41:31;;;;;;;1999.90;999.90;;;10.70;99.90;;;;;;4976180;28;20034;-82
2022/09/26 01:44:22;;;;;;;1999.90;999.90;;;10.70;99.90;;;;;;4996114;28;20127;-82
2022/09/26 01:46:59;;;;;;;1999.90;999.90;;;10.60;99.90;;;;;;5012803;28;20037;-77
2022/09/26 01:49:31;;;;;;;1999.90;999.90;;;10.60;99.90;;;;;;4996085;28;20483;-77
2022/09/26 01:52:21;;;;;;;1999.90;999.90;;;10.60;99.90;;;;;;5012727;28;20061;-77
2022/09/26 01:55:11;;;;;;;1999.90;999.90;;;10.50;99.90;;;;;;5012755;28;20038;-77
2022/09/26 01:58:02;;;;;;;1999.90;999.90;;;10.50;99.90;;;;;;5012676;28;20400;-82
2022/09/26 02:00:29;;;;;;;1999.90;999.90;;;10.60;99.90;;;;;;5012620;28;20049;-77
2022/09/26 02:02:55;;;;;;;1999.90;999.90;;;10.50;99.90;;;;;;5012342;28;20060;-77
2022/09/26 02:05:26;;;;;;;1999.90;999.90;;;10.60;99.90;;;;;;5012293;28;20053;-82
2022/09/26 02:08:14;;;;;;;1999.90;999.90;;;10.60;99.90;;;;;;5012525;28;20038;-82
2022/09/26 02:10:49;;;;;;;1999.90;999.90;;;10.60;99.90;;;;;;5012136;28;20036;-82
2022/09/26 02:13:26;;;;;;;1999.90;999.90;;;10.60;99.90;;;;;;4995560;28;20034;-82
2022/09/26 02:15:57;;;;;;;1999.90;999.90;;;10.60;99.90;;;;;;5012417;28;20034;-77
2022/09/26 02:18:49;;;;;;;1999.90;999.90;;;10.60;99.90;;;;;;5005096;28;20101;-82
2022/09/26 02:21:20;;;;;;;1999.90;999.90;;;10.60;99.90;;;;;;4993532;28;20116;-82
2022/09/26 02:23:48;;;;;;;1999.90;999.90;;;10.70;99.90;;;;;;4993834;28;20133;-82
2022/09/26 02:26:13;;;;;;;1999.90;999.90;;;10.70;99.90;;;;;;4994663;28;20394;-77
2022/09/26 02:28:39;;;;;;;1999.90;999.90;;;10.80;99.90;;;;;;4994775;28;20081;-77
2022/09/26 02:31:07;;;;;;;1999.90;999.90;;;10.80;99.90;;;;;;4994925;28;20022;-77
2022/09/26 02:33:34;;;;;;;1999.90;999.90;;;10.90;99.90;;;;;;4989828;28;20031;-82
2022/09/26 02:36:02;;;;;;;1999.90;999.90;;;11.00;99.90;;;;;;4975101;28;20085;-82
2022/09/26 02:38:29;;;;;;;1999.90;999.90;;;11.10;99.90;;;;;;4977227;28;20117;-77
2022/09/26 02:41:08;;;;;;;1999.90;999.90;;;11.20;99.90;;;;;;4994588;28;20081;-76
2022/09/26 02:44:02;;;;;;;1999.90;999.90;;;11.20;99.90;;;;;;4994547;28;20437;-76
2022/09/26 02:46:37;;;;;;;1999.90;999.90;;;11.20;99.90;;;;;;4994400;28;20041;-77
2022/09/26 02:49:26;;;;;;;1999.90;999.90;;;11.30;99.90;;;;;;4993043;28;20030;-82
2022/09/26 02:52:01;;;;;;;1999.90;999.90;;;11.30;99.90;;;;;;4992928;28;20030;-82
2022/09/26 02:54:36;;;;;;;1999.90;999.90;;;11.30;99.90;;;;;;4994149;28;20026;-77
2022/09/26 02:57:28;;;;;;;1999.90;999.90;;;11.30;99.90;;;;;;4994321;28;20045;-77
2022/09/26 02:59:54;;;;;;;1999.90;999.90;;;11.40;99.90;;;;;;4994135;28;20050;-77
2022/09/26 03:02:30;;;;;;;1999.90;999.90;;;11.40;99.90;;;;;;4992556;28;20470;-82
2022/09/26 03:05:20;;;;;;;1999.90;999.90;;;11.50;99.90;;;;;;4993925;28;20034;-82
2022/09/26 03:07:49;;;;;;;1999.90;999.90;;;11.50;99.90;;;;;;4993825;28;20531;-76
2022/09/26 03:10:16;;;;;;;1999.90;999.90;;;11.60;99.90;;;;;;4993480;28;20029;-77
2022/09/26 03:12:43;;;;;;;1999.90;999.90;;;11.60;99.90;;;;;;4993688;28;20400;-76
2022/09/26 03:15:11;;;;;;;1999.90;999.90;;;11.60;99.90;;;;;;4994171;28;20397;-82
2022/09/26 03:17:42;;;;;;;1999.90;999.90;;;11.60;99.90;;;;;;4992367;28;20438;-77
2022/09/26 03:20:12;;;;;;;1999.90;999.90;;;11.60;99.90;;;;;;4993409;28;20026;-77
2022/09/26 03:22:38;;;;;;;1999.90;999.90;;;11.60;99.90;;;;;;4993182;28;20035;-83
2022/09/26 03:25:06;;;;;;;1999.90;999.90;;;11.60;99.90;;;;;;4992391;28;20535;-82
2022/09/26 03:27:34;;;;;;;1999.90;999.90;;;11.60;99.90;;;;;;4993773;28;20040;-82
2022/09/26 03:30:00;;;;;;;1999.90;999.90;;;11.60;99.90;;;;;;4993599;28;20102;-76
2022/09/26 03:32:25;;;;;;;1999.90;999.90;;;11.60;99.90;;;;;;4993155;28;20201;-77
2022/09/26 03:34:51;;;;;;;1999.90;999.90;;;11.60;99.90;;;;;;4978505;28;20031;-77
2022/09/26 03:37:17;;;;;;;1999.90;999.90;;;11.60;99.90;;;;;;4974027;28;20031;-82
2022/09/26 03:39:43;;;;;;;1999.90;999.90;;;11.60;99.90;;;;;;4972762;28;20027;-82
2022/09/26 03:42:09;;;;;;;1999.90;999.90;;;11.60;99.90;;;;;;4974141;28;20442;-82
2022/09/26 03:44:35;;;;;;;1999.90;999.90;;;11.60;99.90;;;;;;4973793;28;20026;-82
2022/09/26 03:47:00;;;;;;;1999.90;999.90;;;11.50;99.90;;;;;;4974052;28;20062;-77
2022/09/26 03:49:26;;;;;;;1999.90;999.90;;;11.50;99.90;;;;;;4972328;28;20018;-82
2022/09/26 03:51:51;;;;;;;1999.90;999.90;;;11.50;99.90;;;;;;4972455;28;20113;-82
2022/09/26 03:54:17;;;;;;;1999.90;999.90;;;11.50;99.90;;;;;;4973672;28;20078;-77
2022/09/26 03:56:43;;;;;;;1999.90;999.90;;;11.40;99.90;;;;;;4972411;28;20027;-76
2022/09/26 03:59:09;;;;;;;1999.90;999.90;;;11.40;99.90;;;;;;4973813;28;20019;-77
2022/09/26 04:01:34;;;;;;;1999.90;999.90;;;11.40;99.90;;;;;;4973642;28;20398;-82
2022/09/26 04:04:00;;;;;;;1999.90;999.90;;;11.40;99.90;;;;;;4973489;28;20055;-82
2022/09/26 04:06:26;;;;;;;1999.90;999.90;;;11.40;99.90;;;;;;4973288;28;20185;-77
2022/09/26 04:08:52;;;;;;;1999.90;999.90;;;11.30;99.90;;;;;;4973572;28;20026;-82
2022/09/26 04:11:20;;;;;;;1999.90;999.90;;;11.30;99.90;;;;;;4973633;28;20031;-77
2022/09/26 04:13:46;;;;;;;1999.90;999.90;;;11.30;99.90;;;;;;4973334;28;20030;-76
2022/09/26 04:16:12;;;;;;;1999.90;999.90;;;11.20;99.90;;;;;;4974085;28;20065;-76
2022/09/26 04:18:38;;;;;;;1999.90;999.90;;;11.20;99.90;;;;;;4992553;28;20050;-82
2022/09/26 04:21:07;;;;;;;1999.90;999.90;;;11.10;99.90;;;;;;4992663;28;20035;-82
2022/09/26 04:23:35;;;;;;;1999.90;999.90;;;11.10;99.90;;;;;;4992607;28;20022;-76
2022/09/26 04:26:04;;;;;;;1999.90;999.90;;;11.10;99.90;;;;;;4991875;28;20486;-76
2022/09/26 04:28:30;;;;;;;1999.90;999.90;;;11.00;99.90;;;;;;4992584;28;20495;-82
2022/09/26 04:31:00;;;;;;;1999.90;999.90;;;11.00;99.90;;;;;;4992432;28;20033;-82
2022/09/26 04:33:25;;;;;;;1999.90;999.90;;;11.00;99.90;;;;;;4988883;28;20102;-82
2022/09/26 04:35:52;;;;;;;1999.90;999.90;;;11.00;99.90;;;;;;4972690;28;20447;-76
2022/09/26 04:38:17;;;;;;;1999.90;999.90;;;10.90;99.90;;;;;;4972600;28;20069;-76
2022/09/26 04:40:43;;;;;;;1999.90;999.90;;;10.90;99.90;;;;;;4992555;28;20062;-76
2022/09/26 04:43:10;;;;;;;1999.90;999.90;;;10.90;99.90;;;;;;4991439;28;20549;-82
2022/09/26 04:45:38;;;;;;;1999.90;999.90;;;10.90;99.90;;;;;;4992611;28;20449;-82
2022/09/26 04:48:04;;;;;;;1999.90;999.90;;;10.90;99.90;;;;;;4991056;28;20432;-82
2022/09/26 04:50:29;;;;;;;1999.90;999.90;;;10.90;99.90;;;;;;4992359;28;20110;-76
2022/09/26 04:52:55;;;;;;;1999.90;999.90;;;10.90;99.90;;;;;;4991175;28;20018;-76
2022/09/26 04:55:21;;;;;;;1999.90;999.90;;;11.00;99.90;;;;;;4992676;28;20512;-76
2022/09/26 04:57:49;;;;;;;1999.90;999.90;;;11.00;99.90;;;;;;4984915;28;20030;-82
2022/09/26 05:00:17;;;;;;;1999.90;999.90;;;11.00;99.90;;;;;;4971687;28;20042;-81
2022/09/26 05:02:46;;;;;;;1999.90;999.90;;;11.00;99.90;;;;;;4972611;28;20027;-76
2022/09/26 05:05:12;;;;;;;1999.90;999.90;;;11.00;99.90;;;;;;4973085;28;20062;-76
2022/09/26 05:07:41;;;;;;;1999.90;999.90;;;11.00;99.90;;;;;;4972848;28;20031;-81
2022/09/26 05:10:09;;;;;;;1999.90;999.90;;;11.00;99.90;;;;;;4972700;28;20027;-77
2022/09/26 05:12:38;;;;;;;1999.90;999.90;;;11.00;99.90;;;;;;4971293;28;20041;-81
2022/09/26 05:15:08;;;;;;;1999.90;999.90;;;10.90;99.90;;;;;;4973056;28;20505;-81
2022/09/26 05:17:35;;;;;;;1999.90;999.90;;;10.90;99.90;;;;;;4983578;28;20022;-76
2022/09/26 05:20:07;;;;;;;1999.90;999.90;;;10.90;99.90;;;;;;4991497;28;20046;-76
2022/09/26 05:22:32;;;;;;;1999.90;999.90;;;11.00;99.90;;;;;;4991473;28;20049;-81
2022/09/26 05:27:43;;;;;;;1999.90;999.90;;;11.00;99.90;;;;;;4988808;28;20045;-80
2022/09/26 05:30:11;;;;;;;1999.90;999.90;;;11.00;99.90;;;;;;4988952;28;20030;-76
2022/09/26 05:32:36;;;;;;;1999.90;999.90;;;11.00;99.90;;;;;;4991349;28;20480;-81
2022/09/26 05:35:04;;;;;;;1999.90;999.90;;;11.10;99.90;;;;;;4983712;28;20521;-81
2022/09/26 05:37:30;;;;;;;1999.90;999.90;;;11.10;99.90;;;;;;4983765;28;20030;-76
2022/09/26 05:42:39;;;;;;;1999.90;999.90;;;11.20;99.90;;;;;;4991494;28;20120;-76
2022/09/26 05:45:06;;;;;;;1999.90;999.90;;;11.30;99.90;;;;;;4991616;28;20085;-76
2022/09/26 05:47:35;;;;;;;1999.90;999.90;;;11.30;99.90;;;;;;4978087;28;20050;-81
2022/09/26 05:50:08;;;;;;;1999.90;999.90;;;11.30;99.90;;;;;;4991432;28;20475;-76
2022/09/26 05:52:37;;;;;;;;;;;11.40;99.90;;;;;;4995210;28;20524;-81
2022/09/26 05:55:04;;;;;;;1999.90;999.90;;;11.40;99.90;;;;;;4994840;28;19920;-76
2022/09/26 05:57:30;;;;;;;1999.90;999.90;;;11.40;99.90;;;;;;4991778;28;20027;-76
2022/09/26 05:59:55;;;;;;;1999.90;999.90;;;11.40;99.90;;;;;;4994285;28;20453;-76
2022/09/26 06:02:21;;;;;;;1999.90;999.90;;;11.40;99.90;;;;;;4993910;28;20038;-77
2022/09/26 06:04:46;;;;;;;1999.90;999.90;;;11.40;99.90;;;;;;4992709;28;20058;-75
2022/09/26 06:07:12;;;;;;;1999.90;999.90;;;11.40;99.90;;;;;;4991982;28;20369;-75
2022/09/26 06:09:38;;;;;;;1999.90;999.90;;;11.40;99.90;;;;;;4987759;28;20026;-76
2022/09/26 06:12:03;;;;;;;1999.90;999.90;;;11.40;99.90;;;;;;4988085;28;20031;-82
2022/09/26 06:14:30;;;;;;;1999.90;999.90;;;11.50;99.90;;;;;;4989064;28;20038;-76
2022/09/26 06:16:56;;;;;;;1999.90;999.90;;;11.50;99.90;;;;;;4990265;28;20026;-76
2022/09/26 06:19:22;;;;;;;1999.90;999.90;;;11.50;99.90;;;;;;4990563;28;20029;-81
2022/09/26 06:21:48;;;;;;;1999.90;999.90;;;11.60;99.90;;;;;;4991558;28;20101;-77
2022/09/26 06:24:13;;;;;;;1999.90;999.90;;;11.60;99.90;;;;;;4988475;28;20948;-76
2022/09/26 06:26:39;;;;;;;1999.90;999.90;;;11.60;99.90;;;;;;4987863;28;20802;-82
2022/09/26 06:29:06;;;;;;;1999.90;999.90;;;11.60;99.90;;;;;;4990167;28;20125;-76
2022/09/26 06:31:32;;;;;;;1999.90;999.90;;;11.50;99.90;;;;;;4991815;28;20030;-77
2022/09/26 06:33:59;;;;;;;1999.90;999.90;;;11.60;99.90;;;;;;4982576;28;20409;-77
2022/09/26 06:36:25;;;;;;;1999.90;999.90;;;11.60;99.90;;;;;;4986792;28;20029;-75
2022/09/26 06:38:52;;;;;;;1999.90;999.90;;;11.60;99.90;;;;;;4989090;28;20034;-82
2022/09/26 06:41:18;;;;;;;1999.90;999.90;;;11.60;99.90;;;;;;4990710;28;20026;-77
2022/09/26 06:43:44;;;;;;;1999.90;999.90;;;11.60;99.90;;;;;;4979492;28;20030;-77
2022/09/26 06:46:11;;;;;;;1999.90;999.90;;;11.60;99.90;;;;;;4998477;28;20121;-78
2022/09/26 06:48:37;;;;;;;1999.90;999.90;;;11.70;99.90;;;;;;4992024;28;20038;-77
2022/09/26 06:51:03;;;;;;;1999.90;999.90;;;11.80;99.90;;;;;;4991590;28;20038;-77
2022/09/26 06:53:29;;;;;;;1999.90;999.90;;;11.90;99.90;;;;;;4982587;28;20033;-81
2022/09/26 06:55:56;;;;;;;1999.90;999.90;;;12.00;99.90;;;;;;4989136;28;20382;-81
2022/09/26 06:58:22;;;;;;;1999.90;999.90;;;12.10;99.90;;;;;;4987307;28;20027;-82
2022/09/26 07:00:48;;;;;;;1999.90;999.90;;;12.20;99.90;;;;;;4990612;28;20033;-77
2022/09/26 07:03:14;;;;;;;1999.90;999.90;;;12.30;99.90;;;;;;4991554;28;20065;-77
2022/09/26 07:05:40;;;;;;;1999.90;999.90;;;12.40;99.90;;;;;;4990102;28;20081;-80
2022/09/26 07:08:06;;;;;;;1999.90;999.90;;;12.50;99.90;;;;;;4986132;28;20034;-81
2022/09/26 07:10:33;;;;;;;1999.90;999.90;;;12.60;99.90;;;;;;4988020;28;20561;-81
2022/09/26 07:13:04;;;;;;;1999.90;999.90;;;12.70;99.90;;;;;;4991350;28;20030;-77
2022/09/26 07:15:32;;;;;;;1999.90;999.90;;;12.70;99.90;;;;;;4984621;28;20038;-77
2022/09/26 07:18:01;;;;;;;1999.90;999.90;;;12.80;99.90;;;;;;4990278;28;20080;-81
2022/09/26 07:20:28;;;;;;;1999.90;999.90;;;12.90;99.90;;;;;;4991140;28;20112;-80
2022/09/26 07:22:54;;;;;;;1999.90;999.90;;;13.00;99.90;;;;;;4990140;28;20031;-81
2022/09/26 07:25:19;;;;;;;1999.90;999.90;;;13.10;99.90;;;;;;4991858;28;20037;-77
2022/09/26 07:27:49;;;;;;;1999.90;999.90;;;13.10;99.90;;;;;;4994369;28;20050;-77
2022/09/26 07:30:14;;;;;;;1999.90;999.90;;;13.20;99.90;;;;;;4985840;28;20022;-83
2022/09/26 07:32:46;;;;;;;1999.90;999.90;;;13.20;99.90;;;;;;4987387;28;20136;-82
2022/09/26 07:35:13;;;;;;;1999.90;999.90;;;13.30;99.90;;;;;;4989944;28;20022;-78
2022/09/26 07:37:39;;;;;;;1999.90;999.90;;;13.30;99.90;;;;;;4991291;28;20037;-78
2022/09/26 07:40:05;;;;;;;1999.90;999.90;;;13.40;99.90;;;;;;4990860;28;20031;-78
2022/09/26 07:42:31;;;;;;;1999.90;999.90;;;13.40;99.90;;;;;;4986145;28;20069;-83
2022/09/26 07:44:57;;;;;;;1999.90;999.90;;;13.40;99.90;;;;;;4990828;28;20054;-82
2022/09/26 07:50:15;;;;;;;1999.90;999.90;;;13.50;99.90;;;;;;4987704;28;20037;-83
2022/09/26 07:52:43;;;;;;;1999.90;999.90;;;13.70;99.90;;;;;;4988576;28;20062;-78
2022/09/26 07:55:11;;;;;;;1999.90;999.90;;;13.80;99.90;;;;;;4989203;28;20010;-77
2022/09/26 07:57:37;;;;;;;1999.90;999.90;;;13.80;99.90;;;;;;4984109;28;20030;-80
2022/09/26 08:00:11;;;;;;;1999.90;999.90;;;13.80;99.90;;;;;;4989036;28;20042;-77
2022/09/26 08:02:41;;;;;;;1999.90;999.90;;;13.90;99.90;;;;;;4986059;28;20066;-77
2022/09/26 08:05:09;;;;;;;1999.90;999.90;;;13.80;99.90;;;;;;4988888;28;20121;-77
2022/09/26 08:07:35;;;;;;;1999.90;999.90;;;13.80;99.90;;;;;;4986095;28;20022;-77
2022/09/26 08:10:02;;;;;;;1999.90;999.90;;;13.90;99.90;;;;;;4987738;28;20054;-76
2022/09/26 08:12:33;;;;;;;1999.90;999.90;;;13.80;99.90;;;;;;4989247;28;20328;-81
2022/09/26 08:14:58;;;;;;;1999.90;999.90;;;13.90;99.90;;;;;;4989985;28;20034;-79
2022/09/26 08:17:24;;;;;;;1999.90;999.90;;;13.80;99.90;;;;;;4988135;28;20470;-76
2022/09/26 08:19:50;;;;;;;1999.90;999.90;;;13.70;99.90;;;;;;4989120;28;20038;-77
2022/09/26 08:22:15;;;;;;;1999.90;999.90;;;13.70;99.90;;;;;;4983965;28;20030;-80
2022/09/26 08:24:43;;;;;;;1999.90;999.90;;;13.80;99.90;;;;;;4987203;28;20042;-80
2022/09/26 08:27:09;;;;;;;1999.90;999.90;;;14.00;99.90;;;;;;4987675;28;20029;-77
2022/09/26 08:29:35;;;;;;;1999.90;999.90;;;14.00;99.90;;;;;;4988969;28;20034;-79
2022/09/26 08:32:02;;;;;;;1999.90;999.90;;;14.10;99.90;;;;;;4987564;28;20030;-76
2022/09/26 08:34:30;;;;;;;1999.90;999.90;;;14.10;99.90;;;;;;4982243;28;20109;-76
2022/09/26 08:36:56;;;;;;;1999.90;999.90;;;14.30;99.90;;;;;;4988040;28;20053;-79
2022/09/26 08:39:23;;;;;;;1999.90;999.90;;;14.50;99.90;;;;;;4989927;28;20531;-77
2022/09/26 08:42:22;;;;;;;1999.90;999.90;;;14.80;99.90;;;;;;4987108;28;20054;-76
2022/09/26 08:46:29;;;;;;;1999.90;999.90;;;15.00;99.90;;;;;;4987302;28;20101;-76
2022/09/26 08:48:15;;;;;;;1999.90;999.90;;;15.20;99.90;;;;;;4988107;28;20034;-76
2022/09/26 08:50:40;;;;;;;1999.90;999.90;;;15.30;99.90;;;;;;4989629;28;20501;-76
2022/09/26 08:53:14;;;;;;;1999.90;999.90;;;15.40;99.90;;;;;;4986573;28;20117;-81
2022/09/26 08:55:43;;;;;;;1999.90;999.90;;;15.60;99.90;;;;;;4987103;28;20030;-77
2022/09/26 08:58:35;;;;;;;1999.90;999.90;;;15.80;99.90;;;;;;4997118;28;20045;-78
2022/09/26 09:01:03;;;;;;;1999.90;999.90;;;15.90;99.90;;;;;;4988472;28;20363;-77
2022/09/26 09:03:45;;;;;;;1999.90;999.90;;;16.40;99.90;;;;;;4989591;28;20035;-80
2022/09/26 09:06:13;;;;;;;1999.90;999.90;;;16.50;99.90;;;;;;4986539;28;20057;-78
2022/09/26 09:08:47;;;;;;;1999.90;999.90;;;16.70;99.90;;;;;;4982484;28;20027;-80
2022/09/26 09:11:48;;;;;;;1999.90;999.90;;;16.50;99.90;;;;;;4986985;28;20105;-77
2022/09/26 09:14:32;;;;;;;1999.90;999.90;;;16.20;99.90;;;;;;4989198;28;20366;-79
2022/09/26 09:17:12;;;;;;;1999.90;999.90;;;16.30;99.90;;;;;;4986496;28;20023;-79
2022/09/26 09:20:10;;;;;;;1999.90;999.90;;;16.40;99.90;;;;;;4977063;28;20026;-78
2022/09/26 09:23:15;;;;;;;1999.90;999.90;;;16.90;99.90;;;;;;4989930;28;20027;-77
2022/09/26 09:25:54;;;;;;;1999.90;999.90;;;17.20;99.90;;;;;;4988122;28;20042;-77
2022/09/26 09:28:44;;;;;;;1999.90;999.90;;;17.70;99.90;;;;;;4983929;28;20015;-80
2022/09/26 09:31:13;;;;;;;1999.90;999.90;;;17.90;99.90;;;;;;4991991;28;20073;-79
2022/09/26 09:33:49;;;;;;;1999.90;999.90;;;17.90;99.90;;;;;;4992619;28;20093;-79
2022/09/26 09:36:24;;;;;;;1999.90;999.90;;;18.20;99.90;;;;;;4991398;28;20117;-76
2022/09/26 09:38:52;;;;;;;1999.90;999.90;;;18.50;99.90;;;;;;4986969;28;20100;-79
2022/09/26 09:41:33;;;;;;;1999.90;999.90;;;18.30;99.90;;;;;;4993862;28;20037;-77
2022/09/26 09:44:02;;;;;;;1999.90;999.90;;;17.70;99.90;;;;;;4992298;28;20385;-76
2022/09/26 09:46:34;;;;;;;1999.90;999.90;;;17.40;99.90;;;;;;4985688;28;20026;-78
2022/09/26 09:49:23;;;;;;;1999.90;999.90;;;17.30;99.90;;;;;;4991421;28;20031;-77
2022/09/26 09:52:05;;;;;;;1999.90;999.90;;;17.20;99.90;;;;;;4988009;28;20533;-76
2022/09/26 09:55:02;;;;;;;1999.90;999.90;;;17.60;99.90;;;;;;4986228;28;20030;-77
2022/09/26 09:57:36;;;;;;;1999.90;999.90;;;17.70;99.90;;;;;;4986486;28;20042;-75
2022/09/26 10:00:16;;;;;;;1999.90;999.90;;;17.80;99.90;;;;;;4987519;28;20437;-77
2022/09/26 10:03:08;;;;;;;1999.90;999.90;;;18.00;99.90;;;;;;4982322;28;20453;-77
2022/09/26 10:05:45;;;;;;;1999.90;999.90;;;17.80;99.90;;;;;;4989604;28;20518;-76
2022/09/26 10:08:16;;;;;;;1999.90;999.90;;;17.90;99.90;;;;;;4988783;28;20390;-77
2022/09/26 10:11:03;;;;;;;1999.90;999.90;;;17.90;99.90;;;;;;4988157;28;20037;-77
2022/09/26 10:13:30;;;;;;;1999.90;999.90;;;17.80;99.90;;;;;;4992498;28;20096;-80
2022/09/26 10:16:03;;;;;;;1999.90;999.90;;;18.10;99.90;;;;;;4989436;28;20035;-78
2022/09/26 10:18:30;;;;;;;;;;;18.50;99.90;;;;;;4987021;28;20044;-77
2022/09/26 10:20:57;;;;;;;1999.90;999.90;;;18.50;99.90;;;;;;4991521;28;19913;-80
2022/09/26 10:23:26;;;;;;;1999.90;999.90;;;18.40;99.90;;;;;;4988921;28;20058;-75
2022/09/26 10:25:58;;;;;;;1999.90;999.90;;;17.90;99.90;;;;;;4981413;28;20033;-75
2022/09/26 10:28:30;;;;;;;1999.90;999.90;;;18.00;99.90;;;;;;4988742;28;20054;-75
2022/09/26 10:31:02;;;;;;;1999.90;999.90;;;18.20;99.90;;;;;;4990363;28;20117;-79
2022/09/26 10:33:34;;;;;;;1999.90;999.90;;;18.50;99.90;;;;;;4982265;28;20265;-79
2022/09/26 10:36:21;;;;;;;1999.90;999.90;;;18.80;99.90;;;;;;4989048;28;20034;-79
2022/09/26 10:41:41;;;;;;;1999.90;999.90;;;19.50;97.40;;;;;;4992339;28;20408;-76
2022/09/26 10:44:21;;;;;;;1999.90;999.90;;;19.10;96.90;;;;;;4990369;28;20034;-77
2022/09/26 10:46:50;;;;;;;1999.90;999.90;;;19.30;97.50;;;;;;4991898;28;20038;-78
2022/09/26 10:49:20;;;;;;;1999.90;999.90;;;19.30;96.80;;;;;;4991337;28;20537;-78
2022/09/26 10:51:56;;;;;;;1999.90;999.90;;;19.10;97.50;;;;;;4991956;28;20080;-79
2022/09/26 10:54:31;;;;;;;1999.90;999.90;;;18.70;98.20;;;;;;4987332;28;20030;-77
2022/09/26 10:56:58;;;;;;;1999.90;999.90;;;18.60;98.40;;;;;;4985300;28;20027;-74
2022/09/26 10:59:27;;;;;;;1999.90;999.90;;;18.70;97.80;;;;;;4988616;28;20022;-75
2022/09/26 11:01:57;;;;;;;1999.90;999.90;;;18.80;98.40;;;;;;4989414;28;20393;-78
2022/09/26 11:07:38;;;;;;;1999.90;999.90;;;18.90;98.60;;;;;;4986754;28;20191;-75
2022/09/26 11:10:12;;;;;;;1999.90;999.90;;;18.90;98.60;;;;;;4987664;28;20083;-74
2022/09/26 11:12:57;;;;;;;1999.90;999.90;;;19.00;98.90;;;;;;4987856;28;20490;-76
2022/09/26 11:15:23;;;;;;;1999.90;999.90;;;19.20;98.70;;;;;;4986477;28;20037;-79
2022/09/26 11:17:54;;;;;;;1999.90;999.90;;;19.00;99.00;;;;;;4987544;28;20504;-76
2022/09/26 11:20:43;;;;;;;1999.90;999.90;;;18.80;99.70;;;;;;4987531;28;20022;-76
2022/09/26 11:23:21;;;;;;;1999.90;999.90;;;18.90;99.80;;;;;;4984680;28;20164;-76
2022/09/26 11:25:58;;;;;;;1999.90;999.90;;;19.00;99.90;;;;;;4989001;28;20026;-77
2022/09/26 11:28:43;;;;;;;1999.90;999.90;;;19.10;99.60;;;;;;4984470;28;20022;-79
2022/09/26 11:31:25;;;;;;;1999.90;999.90;;;18.90;99.90;;;;;;4984969;28;20065;-73
2022/09/26 11:33:51;;;;;;;1999.90;999.90;;;18.50;99.90;;;;;;4986219;28;20022;-74
2022/09/26 11:36:59;;;;;;;1999.90;999.90;;;18.00;99.90;;;;;;4988197;28;20034;-78
2022/09/26 11:40:02;;;;;;;1999.90;999.90;;;17.70;99.90;;;;;;4985999;28;20524;-78
2022/09/26 11:42:54;;;;;;;1999.90;999.90;;;17.30;99.90;;;;;;4987519;28;20131;-82
2022/09/26 11:45:43;;;;;;;1999.90;999.90;;;17.10;99.90;;;;;;4991103;28;20297;-78
2022/09/26 11:48:27;;;;;;;1999.90;999.90;;;17.00;99.90;;;;;;4984203;28;20034;-80
2022/09/26 11:51:20;;;;;;;1999.90;999.90;;;17.30;99.90;;;;;;4985581;28;20601;-80
2022/09/26 11:53:55;;;;;;;1999.90;999.90;;;17.70;99.90;;;;;;4984241;28;20030;-79
2022/09/26 11:56:24;;;;;;;1999.90;999.90;;;18.20;99.90;;;;;;4990631;28;20038;-80
2022/09/26 11:59:05;;;;;;;1999.90;999.90;;;18.40;99.90;;;;;;4983360;28;20374;-79
2022/09/26 12:01:53;;;;;;;1999.90;999.90;;;18.90;99.90;;;;;;4991604;28;20026;-75
2022/09/26 12:04:37;;;;;;;1999.90;999.90;;;18.80;99.90;;;;;;4981775;28;20038;-76
2022/09/26 12:07:23;;;;;;;1999.90;999.90;;;18.80;99.90;;;;;;4987900;28;20054;-79
2022/09/26 12:10:15;;;;;;;1999.90;999.90;;;19.00;99.90;;;;;;4987525;28;20568;-78
2022/09/26 12:13:02;;;;;;;1999.90;999.90;;;19.60;99.90;;;;;;4990610;28;20045;-80
2022/09/26 12:15:59;;;;;;;1999.90;999.90;;;19.40;99.90;;;;;;4988941;28;20081;-77
2022/09/26 12:18:28;;;;;;;1999.90;999.90;;;19.80;99.90;;;;;;4986112;28;20498;-80
2022/09/26 12:21:20;;;;;;;1999.90;999.90;;;19.50;99.90;;;;;;4990202;28;20109;-79
2022/09/26 12:23:53;;;;;;;1999.90;999.90;;;19.10;99.90;;;;;;4984310;28;20037;-79
2022/09/26 12:26:43;;;;;;;1999.90;999.90;;;19.10;99.90;;;;;;4990399;28;20408;-80
2022/09/26 12:29:22;;;;;;;1999.90;999.90;;;19.10;99.90;;;;;;4989553;28;20029;-80
2022/09/26 12:32:19;;;;;;;1999.90;999.90;;;19.00;99.90;;;;;;4979975;28;20084;-79
2022/09/26 12:34:54;;;;;;;1999.90;999.90;;;18.90;99.90;;;;;;4990124;28;20034;-81
2022/09/26 12:37:32;;;;;;;1999.90;999.90;;;18.80;99.90;;;;;;4990862;28;20033;-74
2022/09/26 12:40:36;;;;;;;1999.90;999.90;;;18.70;99.90;;;;;;4989095;28;20058;-79
2022/09/26 12:43:12;;;;;;;1999.90;999.90;;;18.90;99.90;;;;;;4990188;28;20054;-75